sensor_id;sensor_type;location;lat;lon;timestamp;temperature;humidity
13470;DHT22;6807;48.682;9.032;2022-09-13T00:00:01;12.60;99.90
13470;DHT22;6807;48.682;9.032;2022-09-13T00:02:28;12.50;99.90
13470;DHT22;6807;48.682;9.032;2022-09-13T00:04:56;12.40;99.90
13470;DHT22;6807;48.682;9.032;2022-09-13T00:07:23;12.40;99.90
13470;DHT22;6807;48.682;9.032;2022-09-13T00:09:50;12.40;99.90
13470;DHT22;6807;48.682;9.032;2022-09-13T00:12:17;12.30;99.90
13470;DHT22;6807;48.682;9.032;2022-09-13T00:14:44;12.40;99.90
13470;DHT22;6807;48.682;9.032;2022-09-13T00:17:10;12.40;99.90
13470;DHT22;6807;48.682;9.032;2022-09-13T00:19:37;12.40;99.90
13470;DHT22;6807;48.682;9.032;2022-09-13T00:22:05;12.20;99.90
13470;DHT22;6807;48.682;9.032;2022-09-13T00:24:32;12.50;99.90
13470;DHT22;6807;48.682;9.032;2022-09-13T00:26:59;12.50;99.90
13470;DHT22;6807;48.682;9.032;2022-09-13T00:29:26;12.50;99.90
13470;DHT22;6807;48.682;9.032;2022-09-13T00:31:53;12.50;99.90
13470;DHT22;6807;48.682;9.032;2022-09-13T00:34:20;12.40;99.90
13470;DHT22;6807;48.682;9.032;2022-09-13T00:36:47;12.50;99.90
13470;DHT22;6807;48.682;9.032;2022-09-13T00:39:15;12.40;99.90
13470;DHT22;6807;48.682;9.032;2022-09-13T00:41:42;12.30;99.90
13470;DHT22;6807;48.682;9.032;2022-09-13T00:49:36;12.30;99.90
13470;DHT22;6807;48.682;9.032;2022-09-13T00:52:19;12.20;99.90
13470;DHT22;6807;48.682;9.032;2022-09-13T00:54:59;12.20;99.90
13470;DHT22;6807;48.682;9.032;2022-09-13T00:57:29;12.20;99.90
13470;DHT22;6807;48.682;9.032;2022-09-13T01:00:08;12.40;99.90
13470;DHT22;6807;48.682;9.032;2022-09-13T01:02:47;12.20;99.90
13470;DHT22;6807;48.682;9.032;2022-09-13T01:05:18;12.20;99.90
13470;DHT22;6807;48.682;9.032;2022-09-13T01:07:46;12.10;99.90
13470;DHT22;6807;48.682;9.032;2022-09-13T01:10:14;12.10;99.90
13470;DHT22;6807;48.682;9.032;2022-09-13T01:12:46;12.00;99.90
13470;DHT22;6807;48.682;9.032;2022-09-13T01:15:29;12.00;99.90
13470;DHT22;6807;48.682;9.032;2022-09-13T01:18:06;12.10;99.90
13470;DHT22;6807;48.682;9.032;2022-09-13T01:21:06;12.10;99.90
13470;DHT22;6807;48.682;9.032;2022-09-13T01:23:59;13.90;99.90
13470;DHT22;6807;48.682;9.032;2022-09-13T01:26:59;12.00;99.90
13470;DHT22;6807;48.682;9.032;2022-09-13T01:29:59;13.20;99.90
13470;DHT22;6807;48.682;9.032;2022-09-13T01:32:34;11.80;99.90
13470;DHT22;6807;48.682;9.032;2022-09-13T01:35:10;11.80;99.90
13470;DHT22;6807;48.682;9.032;2022-09-13T01:37:49;11.80;99.90
13470;DHT22;6807;48.682;9.032;2022-09-13T01:40:47;11.80;99.90
13470;DHT22;6807;48.682;9.032;2022-09-13T01:43:26;11.90;99.90
13470;DHT22;6807;48.682;9.032;2022-09-13T01:46:10;11.80;99.90
13470;DHT22;6807;48.682;9.032;2022-09-13T01:48:51;11.80;99.90
13470;DHT22;6807;48.682;9.032;2022-09-13T01:51:41;11.80;99.90
13470;DHT22;6807;48.682;9.032;2022-09-13T01:54:37;11.90;99.90
13470;DHT22;6807;48.682;9.032;2022-09-13T01:57:14;11.90;99.90
13470;DHT22;6807;48.682;9.032;2022-09-13T01:59:48;11.80;99.90
13470;DHT22;6807;48.682;9.032;2022-09-13T02:02:21;11.80;99.90
13470;DHT22;6807;48.682;9.032;2022-09-13T02:05:06;11.70;99.90
13470;DHT22;6807;48.682;9.032;2022-09-13T02:07:36;11.70;99.90
13470;DHT22;6807;48.682;9.032;2022-09-13T02:10:16;11.70;99.90
13470;DHT22;6807;48.682;9.032;2022-09-13T02:12:55;12.90;99.90
13470;DHT22;6807;48.682;9.032;2022-09-13T02:15:39;11.70;99.90
13470;DHT22;6807;48.682;9.032;2022-09-13T02:24:41;11.60;99.90
13470;DHT22;6807;48.682;9.032;2022-09-13T02:27:34;11.50;99.90
13470;DHT22;6807;48.682;9.032;2022-09-13T02:30:06;11.50;99.90
13470;DHT22;6807;48.682;9.032;2022-09-13T02:32:58;11.50;99.90
13470;DHT22;6807;48.682;9.032;2022-09-13T02:39:03;11.40;99.90
13470;DHT22;6807;48.682;9.032;2022-09-13T02:41:36;11.40;99.90
13470;DHT22;6807;48.682;9.032;2022-09-13T02:44:25;11.40;99.90
13470;DHT22;6807;48.682;9.032;2022-09-13T02:53:11;11.30;99.90
13470;DHT22;6807;48.682;9.032;2022-09-13T02:55:51;11.30;99.90
13470;DHT22;6807;48.682;9.032;2022-09-13T02:58:53;12.20;99.90
13470;DHT22;6807;48.682;9.032;2022-09-13T03:01:23;11.30;99.90
13470;DHT22;6807;48.682;9.032;2022-09-13T03:03:51;11.20;99.90
13470;DHT22;6807;48.682;9.032;2022-09-13T03:06:34;11.20;99.90
13470;DHT22;6807;48.682;9.032;2022-09-13T03:09:03;11.30;99.90
13470;DHT22;6807;48.682;9.032;2022-09-13T03:11:58;11.30;99.90
13470;DHT22;6807;48.682;9.032;2022-09-13T03:14:39;11.30;99.90
13470;DHT22;6807;48.682;9.032;2022-09-13T03:17:29;11.30;99.90
13470;DHT22;6807;48.682;9.032;2022-09-13T03:20:35;11.30;99.90
13470;DHT22;6807;48.682;9.032;2022-09-13T03:26:40;11.50;99.90
13470;DHT22;6807;48.682;9.032;2022-09-13T03:29:23;11.30;99.90
13470;DHT22;6807;48.682;9.032;2022-09-13T03:32:27;11.20;99.90
13470;DHT22;6807;48.682;9.032;2022-09-13T03:35:17;11.30;99.90
13470;DHT22;6807;48.682;9.032;2022-09-13T03:40:58;11.20;99.90
13470;DHT22;6807;48.682;9.032;2022-09-13T03:43:29;12.70;99.90
13470;DHT22;6807;48.682;9.032;2022-09-13T03:46:03;11.20;99.90
13470;DHT22;6807;48.682;9.032;2022-09-13T03:48:49;11.40;99.90
13470;DHT22;6807;48.682;9.032;2022-09-13T03:51:17;12.10;99.90
13470;DHT22;6807;48.682;9.032;2022-09-13T03:53:53;11.20;99.90
13470;DHT22;6807;48.682;9.032;2022-09-13T03:56:21;11.20;99.90
13470;DHT22;6807;48.682;9.032;2022-09-13T03:58:49;11.20;99.90
13470;DHT22;6807;48.682;9.032;2022-09-13T04:01:40;11.40;99.90
13470;DHT22;6807;48.682;9.032;2022-09-13T04:07:35;11.20;99.90
13470;DHT22;6807;48.682;9.032;2022-09-13T04:13:31;11.00;99.90
13470;DHT22;6807;48.682;9.032;2022-09-13T04:16:00;11.00;99.90
13470;DHT22;6807;48.682;9.032;2022-09-13T04:18:28;11.20;99.90
13470;DHT22;6807;48.682;9.032;2022-09-13T04:24:35;11.00;99.90
13470;DHT22;6807;48.682;9.032;2022-09-13T04:27:07;11.00;99.90
13470;DHT22;6807;48.682;9.032;2022-09-13T04:29:47;11.00;99.90
13470;DHT22;6807;48.682;9.032;2022-09-13T04:32:27;11.00;99.90
13470;DHT22;6807;48.682;9.032;2022-09-13T04:35:00;11.00;99.90
13470;DHT22;6807;48.682;9.032;2022-09-13T04:37:35;11.10;99.90
13470;DHT22;6807;48.682;9.032;2022-09-13T04:40:10;11.10;99.90
13470;DHT22;6807;48.682;9.032;2022-09-13T04:43:01;11.20;99.90
13470;DHT22;6807;48.682;9.032;2022-09-13T04:45:28;11.20;99.90
13470;DHT22;6807;48.682;9.032;2022-09-13T04:47:56;11.40;99.90
13470;DHT22;6807;48.682;9.032;2022-09-13T04:50:23;11.40;99.90
13470;DHT22;6807;48.682;9.032;2022-09-13T04:53:07;11.40;99.90
13470;DHT22;6807;48.682;9.032;2022-09-13T04:55:35;11.50;99.90
13470;DHT22;6807;48.682;9.032;2022-09-13T04:58:05;11.50;99.90
13470;DHT22;6807;48.682;9.032;2022-09-13T05:00:32;11.60;99.90
13470;DHT22;6807;48.682;9.032;2022-09-13T05:03:09;11.60;99.90
13470;DHT22;6807;48.682;9.032;2022-09-13T05:05:48;12.00;99.90
13470;DHT22;6807;48.682;9.032;2022-09-13T05:08:15;11.50;99.90
13470;DHT22;6807;48.682;9.032;2022-09-13T05:10:45;11.50;99.90
13470;DHT22;6807;48.682;9.032;2022-09-13T05:13:17;11.50;99.90
13470;DHT22;6807;48.682;9.032;2022-09-13T05:15:46;11.50;99.90
13470;DHT22;6807;48.682;9.032;2022-09-13T05:18:40;11.50;99.90
13470;DHT22;6807;48.682;9.032;2022-09-13T05:21:19;11.50;99.90
13470;DHT22;6807;48.682;9.032;2022-09-13T05:23:56;11.50;99.90
13470;DHT22;6807;48.682;9.032;2022-09-13T05:26:43;11.60;99.90
13470;DHT22;6807;48.682;9.032;2022-09-13T05:29:33;11.60;99.90
13470;DHT22;6807;48.682;9.032;2022-09-13T05:32:01;11.60;99.90
13470;DHT22;6807;48.682;9.032;2022-09-13T05:34:28;11.60;99.90
13470;DHT22;6807;48.682;9.032;2022-09-13T05:37:21;11.60;99.90
13470;DHT22;6807;48.682;9.032;2022-09-13T05:43:32;11.70;99.90
13470;DHT22;6807;48.682;9.032;2022-09-13T05:49:55;11.90;99.90
13470;DHT22;6807;48.682;9.032;2022-09-13T05:52:22;12.20;99.90
13470;DHT22;6807;48.682;9.032;2022-09-13T05:55:44;12.30;99.90
13470;DHT22;6807;48.682;9.032;2022-09-13T05:58:11;12.70;99.90
13470;DHT22;6807;48.682;9.032;2022-09-13T06:00:39;12.90;99.90
13470;DHT22;6807;48.682;9.032;2022-09-13T06:03:07;13.10;99.90
13470;DHT22;6807;48.682;9.032;2022-09-13T06:08:56;13.40;99.90
13470;DHT22;6807;48.682;9.032;2022-09-13T06:11:24;14.10;99.90
13470;DHT22;6807;48.682;9.032;2022-09-13T06:14:01;14.60;99.90
13470;DHT22;6807;48.682;9.032;2022-09-13T06:16:48;14.60;99.90
13470;DHT22;6807;48.682;9.032;2022-09-13T06:22:28;15.00;99.90
13470;DHT22;6807;48.682;9.032;2022-09-13T06:25:08;14.70;99.90
13470;DHT22;6807;48.682;9.032;2022-09-13T06:27:40;14.60;99.90
13470;DHT22;6807;48.682;9.032;2022-09-13T06:30:17;14.40;99.90
13470;DHT22;6807;48.682;9.032;2022-09-13T06:32:59;14.30;99.90
13470;DHT22;6807;48.682;9.032;2022-09-13T06:39:04;14.10;99.90
13470;DHT22;6807;48.682;9.032;2022-09-13T06:41:33;15.00;99.90
13470;DHT22;6807;48.682;9.032;2022-09-13T06:44:01;16.70;99.90
13470;DHT22;6807;48.682;9.032;2022-09-13T06:49:00;17.20;99.90
13470;DHT22;6807;48.682;9.032;2022-09-13T06:51:28;18.20;99.90
13470;DHT22;6807;48.682;9.032;2022-09-13T06:53:56;19.10;99.90
13470;DHT22;6807;48.682;9.032;2022-09-13T06:56:24;19.90;99.90
13470;DHT22;6807;48.682;9.032;2022-09-13T06:58:54;20.30;99.90
13470;DHT22;6807;48.682;9.032;2022-09-13T07:01:23;20.50;99.90
13470;DHT22;6807;48.682;9.032;2022-09-13T07:03:52;20.50;99.90
13470;DHT22;6807;48.682;9.032;2022-09-13T07:06:23;20.80;99.90
13470;DHT22;6807;48.682;9.032;2022-09-13T07:08:52;21.00;99.90
13470;DHT22;6807;48.682;9.032;2022-09-13T07:11:21;20.60;99.90
13470;DHT22;6807;48.682;9.032;2022-09-13T07:13:49;21.90;99.90
13470;DHT22;6807;48.682;9.032;2022-09-13T07:16:27;22.20;99.90
13470;DHT22;6807;48.682;9.032;2022-09-13T07:18:56;22.50;99.90
13470;DHT22;6807;48.682;9.032;2022-09-13T07:21:25;23.20;99.90
13470;DHT22;6807;48.682;9.032;2022-09-13T07:23:53;23.50;99.90
13470;DHT22;6807;48.682;9.032;2022-09-13T07:26:21;24.10;99.90
13470;DHT22;6807;48.682;9.032;2022-09-13T07:28:50;24.50;99.90
13470;DHT22;6807;48.682;9.032;2022-09-13T07:31:19;23.60;99.90
13470;DHT22;6807;48.682;9.032;2022-09-13T07:33:46;23.00;99.90
13470;DHT22;6807;48.682;9.032;2022-09-13T07:36:13;22.30;99.90
13470;DHT22;6807;48.682;9.032;2022-09-13T07:38:43;22.30;99.90
13470;DHT22;6807;48.682;9.032;2022-09-13T07:41:12;23.70;99.90
13470;DHT22;6807;48.682;9.032;2022-09-13T07:43:39;23.70;99.90
13470;DHT22;6807;48.682;9.032;2022-09-13T07:46:07;23.20;99.90
13470;DHT22;6807;48.682;9.032;2022-09-13T07:48:36;23.20;99.90
13470;DHT22;6807;48.682;9.032;2022-09-13T07:51:05;23.30;99.90
13470;DHT22;6807;48.682;9.032;2022-09-13T07:53:33;23.40;99.90
13470;DHT22;6807;48.682;9.032;2022-09-13T07:56:03;23.30;99.90
13470;DHT22;6807;48.682;9.032;2022-09-13T07:58:31;24.20;99.90
13470;DHT22;6807;48.682;9.032;2022-09-13T08:01:03;25.20;99.90
13470;DHT22;6807;48.682;9.032;2022-09-13T08:03:31;26.30;99.90
13470;DHT22;6807;48.682;9.032;2022-09-13T08:05:58;27.10;99.90
13470;DHT22;6807;48.682;9.032;2022-09-13T08:08:26;27.90;99.90
13470;DHT22;6807;48.682;9.032;2022-09-13T08:10:52;27.20;99.90
13470;DHT22;6807;48.682;9.032;2022-09-13T08:13:21;27.00;99.90
13470;DHT22;6807;48.682;9.032;2022-09-13T08:15:48;27.30;99.90
13470;DHT22;6807;48.682;9.032;2022-09-13T08:18:15;27.40;99.90
13470;DHT22;6807;48.682;9.032;2022-09-13T08:20:42;27.30;99.90
13470;DHT22;6807;48.682;9.032;2022-09-13T08:23:10;26.80;99.90
13470;DHT22;6807;48.682;9.032;2022-09-13T08:25:38;26.70;99.90
13470;DHT22;6807;48.682;9.032;2022-09-13T08:28:05;26.50;99.90
13470;DHT22;6807;48.682;9.032;2022-09-13T08:30:35;27.40;99.90
13470;DHT22;6807;48.682;9.032;2022-09-13T08:33:02;27.50;99.90
13470;DHT22;6807;48.682;9.032;2022-09-13T08:35:30;27.80;99.90
13470;DHT22;6807;48.682;9.032;2022-09-13T08:37:58;28.70;99.90
13470;DHT22;6807;48.682;9.032;2022-09-13T08:40:27;29.40;99.90
13470;DHT22;6807;48.682;9.032;2022-09-13T08:43:01;29.30;99.90
13470;DHT22;6807;48.682;9.032;2022-09-13T08:45:31;29.60;99.90
13470;DHT22;6807;48.682;9.032;2022-09-13T08:48:02;29.70;99.90
13470;DHT22;6807;48.682;9.032;2022-09-13T08:50:33;29.20;99.90
13470;DHT22;6807;48.682;9.032;2022-09-13T08:53:14;29.90;99.90
13470;DHT22;6807;48.682;9.032;2022-09-13T08:55:53;29.80;99.90
13470;DHT22;6807;48.682;9.032;2022-09-13T08:58:32;30.30;99.90
13470;DHT22;6807;48.682;9.032;2022-09-13T09:01:05;29.10;99.90
13470;DHT22;6807;48.682;9.032;2022-09-13T09:03:41;28.20;99.90
13470;DHT22;6807;48.682;9.032;2022-09-13T09:06:12;27.60;99.90
13470;DHT22;6807;48.682;9.032;2022-09-13T09:08:42;30.60;99.90
13470;DHT22;6807;48.682;9.032;2022-09-13T09:11:19;30.50;99.90
13470;DHT22;6807;48.682;9.032;2022-09-13T09:13:51;31.70;99.90
13470;DHT22;6807;48.682;9.032;2022-09-13T09:16:28;31.30;99.90
13470;DHT22;6807;48.682;9.032;2022-09-13T09:19:07;30.00;99.90
13470;DHT22;6807;48.682;9.032;2022-09-13T09:21:36;29.00;99.90
13470;DHT22;6807;48.682;9.032;2022-09-13T09:24:04;29.20;99.90
13470;DHT22;6807;48.682;9.032;2022-09-13T09:26:32;30.10;99.90
13470;DHT22;6807;48.682;9.032;2022-09-13T09:29:00;29.90;99.90
13470;DHT22;6807;48.682;9.032;2022-09-13T09:31:36;30.80;99.90
13470;DHT22;6807;48.682;9.032;2022-09-13T09:34:16;31.00;99.90
13470;DHT22;6807;48.682;9.032;2022-09-13T09:36:52;31.10;99.90
13470;DHT22;6807;48.682;9.032;2022-09-13T09:39:21;30.60;99.90
13470;DHT22;6807;48.682;9.032;2022-09-13T09:41:54;31.20;99.90
13470;DHT22;6807;48.682;9.032;2022-09-13T09:44:24;31.40;99.90
13470;DHT22;6807;48.682;9.032;2022-09-13T09:46:55;30.20;99.90
13470;DHT22;6807;48.682;9.032;2022-09-13T09:49:30;29.40;99.90
13470;DHT22;6807;48.682;9.032;2022-09-13T09:52:17;28.40;99.90
13470;DHT22;6807;48.682;9.032;2022-09-13T09:54:48;28.30;99.90
13470;DHT22;6807;48.682;9.032;2022-09-13T09:57:16;28.40;99.90
13470;DHT22;6807;48.682;9.032;2022-09-13T09:59:45;28.60;99.90
13470;DHT22;6807;48.682;9.032;2022-09-13T10:02:15;29.90;99.90
13470;DHT22;6807;48.682;9.032;2022-09-13T10:04:53;31.00;99.90
13470;DHT22;6807;48.682;9.032;2022-09-13T10:07:25;31.30;99.90
13470;DHT22;6807;48.682;9.032;2022-09-13T10:09:58;32.40;99.90
13470;DHT22;6807;48.682;9.032;2022-09-13T10:12:31;33.90;60.50
13470;DHT22;6807;48.682;9.032;2022-09-13T10:15:13;33.20;31.70
13470;DHT22;6807;48.682;9.032;2022-09-13T10:17:42;33.40;1.00
13470;DHT22;6807;48.682;9.032;2022-09-13T10:20:20;33.90;1.00
13470;DHT22;6807;48.682;9.032;2022-09-13T10:23:10;33.20;1.00
13470;DHT22;6807;48.682;9.032;2022-09-13T10:25:38;33.00;1.00
13470;DHT22;6807;48.682;9.032;2022-09-13T10:28:09;34.20;1.00
13470;DHT22;6807;48.682;9.032;2022-09-13T10:30:39;35.10;1.00
13470;DHT22;6807;48.682;9.032;2022-09-13T10:33:21;35.90;99.90
13470;DHT22;6807;48.682;9.032;2022-09-13T10:35:54;36.00;22.10
13470;DHT22;6807;48.682;9.032;2022-09-13T10:38:26;35.50;99.90
13470;DHT22;6807;48.682;9.032;2022-09-13T10:40:55;35.00;32.40
13470;DHT22;6807;48.682;9.032;2022-09-13T10:43:23;34.60;73.70
13470;DHT22;6807;48.682;9.032;2022-09-13T10:45:53;35.10;1.00
13470;DHT22;6807;48.682;9.032;2022-09-13T10:48:21;34.50;1.00
13470;DHT22;6807;48.682;9.032;2022-09-13T10:51:05;35.70;4.70
13470;DHT22;6807;48.682;9.032;2022-09-13T10:53:36;36.00;80.60
13470;DHT22;6807;48.682;9.032;2022-09-13T10:56:24;34.70;1.00
13470;DHT22;6807;48.682;9.032;2022-09-13T10:59:15;33.90;1.00
13470;DHT22;6807;48.682;9.032;2022-09-13T11:01:43;32.70;1.00
13470;DHT22;6807;48.682;9.032;2022-09-13T11:04:32;32.90;1.00
13470;DHT22;6807;48.682;9.032;2022-09-13T11:07:16;33.50;7.40
13470;DHT22;6807;48.682;9.032;2022-09-13T11:09:54;33.60;19.00
13470;DHT22;6807;48.682;9.032;2022-09-13T11:12:27;33.20;30.40
13470;DHT22;6807;48.682;9.032;2022-09-13T11:15:06;34.40;31.20
13470;DHT22;6807;48.682;9.032;2022-09-13T11:17:58;34.40;51.10
13470;DHT22;6807;48.682;9.032;2022-09-13T11:20:33;34.30;29.90
13470;DHT22;6807;48.682;9.032;2022-09-13T11:23:25;33.90;2.20
13470;DHT22;6807;48.682;9.032;2022-09-13T11:26:08;33.50;20.10
13470;DHT22;6807;48.682;9.032;2022-09-13T11:28:50;32.00;1.00
13470;DHT22;6807;48.682;9.032;2022-09-13T11:31:34;32.00;1.00
13470;DHT22;6807;48.682;9.032;2022-09-13T11:34:15;32.30;1.00
13470;DHT22;6807;48.682;9.032;2022-09-13T11:36:56;32.80;1.00
13470;DHT22;6807;48.682;9.032;2022-09-13T11:39:30;31.90;1.00
13470;DHT22;6807;48.682;9.032;2022-09-13T11:42:08;31.20;1.00
13470;DHT22;6807;48.682;9.032;2022-09-13T11:45:00;31.20;1.00
13470;DHT22;6807;48.682;9.032;2022-09-13T11:47:50;30.40;1.00
13470;DHT22;6807;48.682;9.032;2022-09-13T11:50:29;30.80;1.00
13470;DHT22;6807;48.682;9.032;2022-09-13T11:55:56;31.20;1.00
13470;DHT22;6807;48.682;9.032;2022-09-13T11:58:30;31.00;1.00
13470;DHT22;6807;48.682;9.032;2022-09-13T12:01:03;31.10;1.00
13470;DHT22;6807;48.682;9.032;2022-09-13T12:03:37;30.30;1.00
13470;DHT22;6807;48.682;9.032;2022-09-13T12:06:11;30.00;1.00
13470;DHT22;6807;48.682;9.032;2022-09-13T12:08:41;30.30;1.00
13470;DHT22;6807;48.682;9.032;2022-09-13T12:11:18;29.70;1.00
13470;DHT22;6807;48.682;9.032;2022-09-13T12:13:49;29.60;1.00
13470;DHT22;6807;48.682;9.032;2022-09-13T12:16:22;29.20;1.00
13470;DHT22;6807;48.682;9.032;2022-09-13T12:18:51;28.90;1.00
13470;DHT22;6807;48.682;9.032;2022-09-13T12:21:21;28.60;1.00
13470;DHT22;6807;48.682;9.032;2022-09-13T12:23:55;29.40;1.00
13470;DHT22;6807;48.682;9.032;2022-09-13T12:26:29;29.70;1.00
13470;DHT22;6807;48.682;9.032;2022-09-13T12:28:58;30.60;1.00
13470;DHT22;6807;48.682;9.032;2022-09-13T12:31:28;31.20;1.00
13470;DHT22;6807;48.682;9.032;2022-09-13T12:33:56;31.70;1.00
13470;DHT22;6807;48.682;9.032;2022-09-13T13:03:01;32.00;1.00
13470;DHT22;6807;48.682;9.032;2022-09-13T13:05:38;32.30;1.00
13470;DHT22;6807;48.682;9.032;2022-09-13T13:08:26;33.20;1.00
13470;DHT22;6807;48.682;9.032;2022-09-13T13:11:04;32.50;1.00
13470;DHT22;6807;48.682;9.032;2022-09-13T13:13:41;33.40;1.00
13470;DHT22;6807;48.682;9.032;2022-09-13T13:16:28;33.80;1.00
13470;DHT22;6807;48.682;9.032;2022-09-13T13:19:03;31.90;1.00
13470;DHT22;6807;48.682;9.032;2022-09-13T13:24:57;31.70;1.00
13470;DHT22;6807;48.682;9.032;2022-09-13T13:27:39;32.10;1.00
13470;DHT22;6807;48.682;9.032;2022-09-13T13:30:45;31.80;1.00
13470;DHT22;6807;48.682;9.032;2022-09-13T13:33:22;31.50;1.00
13470;DHT22;6807;48.682;9.032;2022-09-13T13:35:51;31.00;1.00
13470;DHT22;6807;48.682;9.032;2022-09-13T13:38:45;30.60;1.00
13470;DHT22;6807;48.682;9.032;2022-09-13T13:41:41;30.30;1.00
13470;DHT22;6807;48.682;9.032;2022-09-13T13:47:55;29.00;1.00
13470;DHT22;6807;48.682;9.032;2022-09-13T13:50:33;29.00;1.00
13470;DHT22;6807;48.682;9.032;2022-09-13T13:53:21;28.70;1.00
13470;DHT22;6807;48.682;9.032;2022-09-13T13:56:07;29.10;1.00
13470;DHT22;6807;48.682;9.032;2022-09-13T13:58:44;29.70;1.00
13470;DHT22;6807;48.682;9.032;2022-09-13T14:01:16;31.00;1.00
13470;DHT22;6807;48.682;9.032;2022-09-13T14:06:56;32.10;1.00
13470;DHT22;6807;48.682;9.032;2022-09-13T14:09:37;32.90;1.00
13470;DHT22;6807;48.682;9.032;2022-09-13T14:12:19;33.30;1.00
13470;DHT22;6807;48.682;9.032;2022-09-13T14:15:08;33.20;1.00
13470;DHT22;6807;48.682;9.032;2022-09-13T14:21:00;33.60;1.00
13470;DHT22;6807;48.682;9.032;2022-09-13T14:23:30;34.00;1.00
13470;DHT22;6807;48.682;9.032;2022-09-13T14:25:59;33.90;1.00
13470;DHT22;6807;48.682;9.032;2022-09-13T14:28:33;33.40;1.00
13470;DHT22;6807;48.682;9.032;2022-09-13T14:31:01;33.80;1.00
13470;DHT22;6807;48.682;9.032;2022-09-13T14:33:31;34.00;1.00
13470;DHT22;6807;48.682;9.032;2022-09-13T14:36:03;33.20;1.00
13470;DHT22;6807;48.682;9.032;2022-09-13T14:38:49;33.20;1.00
13470;DHT22;6807;48.682;9.032;2022-09-13T14:41:19;33.50;1.00
13470;DHT22;6807;48.682;9.032;2022-09-13T14:43:48;33.30;1.00
13470;DHT22;6807;48.682;9.032;2022-09-13T14:46:20;32.70;1.00
13470;DHT22;6807;48.682;9.032;2022-09-13T14:48:51;31.90;1.00
13470;DHT22;6807;48.682;9.032;2022-09-13T14:51:23;31.00;1.00
13470;DHT22;6807;48.682;9.032;2022-09-13T14:53:54;30.80;1.00
13470;DHT22;6807;48.682;9.032;2022-09-13T14:56:30;30.50;1.00
13470;DHT22;6807;48.682;9.032;2022-09-13T14:59:01;29.70;1.00
13470;DHT22;6807;48.682;9.032;2022-09-13T15:01:33;29.50;1.00
13470;DHT22;6807;48.682;9.032;2022-09-13T15:04:03;28.90;1.00
13470;DHT22;6807;48.682;9.032;2022-09-13T15:06:33;28.60;1.00
13470;DHT22;6807;48.682;9.032;2022-09-13T15:09:14;28.80;1.00
13470;DHT22;6807;48.682;9.032;2022-09-13T15:11:55;28.70;1.00
13470;DHT22;6807;48.682;9.032;2022-09-13T15:14:27;28.90;1.00
13470;DHT22;6807;48.682;9.032;2022-09-13T15:16:59;28.70;1.00
13470;DHT22;6807;48.682;9.032;2022-09-13T15:19:29;28.20;1.00
13470;DHT22;6807;48.682;9.032;2022-09-13T15:22:17;28.10;1.00
13470;DHT22;6807;48.682;9.032;2022-09-13T15:24:47;28.00;1.00
13470;DHT22;6807;48.682;9.032;2022-09-13T15:27:23;28.00;1.00
13470;DHT22;6807;48.682;9.032;2022-09-13T15:29:52;27.90;1.00
13470;DHT22;6807;48.682;9.032;2022-09-13T15:32:22;27.90;1.00
13470;DHT22;6807;48.682;9.032;2022-09-13T15:34:49;28.10;1.00
13470;DHT22;6807;48.682;9.032;2022-09-13T15:37:16;28.00;1.00
13470;DHT22;6807;48.682;9.032;2022-09-13T15:39:46;27.90;1.00
13470;DHT22;6807;48.682;9.032;2022-09-13T15:42:14;27.70;1.00
13470;DHT22;6807;48.682;9.032;2022-09-13T15:44:43;27.60;1.00
13470;DHT22;6807;48.682;9.032;2022-09-13T15:47:14;27.20;1.00
13470;DHT22;6807;48.682;9.032;2022-09-13T15:49:47;27.20;1.00
13470;DHT22;6807;48.682;9.032;2022-09-13T15:52:16;27.10;1.00
13470;DHT22;6807;48.682;9.032;2022-09-13T15:54:46;27.00;1.00
13470;DHT22;6807;48.682;9.032;2022-09-13T15:57:17;26.80;1.00
13470;DHT22;6807;48.682;9.032;2022-09-13T15:59:46;26.60;1.00
13470;DHT22;6807;48.682;9.032;2022-09-13T16:02:29;26.50;1.00
13470;DHT22;6807;48.682;9.032;2022-09-13T16:04:57;26.30;1.00
13470;DHT22;6807;48.682;9.032;2022-09-13T16:07:24;26.20;1.00
13470;DHT22;6807;48.682;9.032;2022-09-13T16:09:53;26.10;1.00
13470;DHT22;6807;48.682;9.032;2022-09-13T16:12:24;26.00;1.00
13470;DHT22;6807;48.682;9.032;2022-09-13T16:14:53;25.80;1.00
13470;DHT22;6807;48.682;9.032;2022-09-13T16:17:21;25.70;1.00
13470;DHT22;6807;48.682;9.032;2022-09-13T16:19:49;25.70;1.00
13470;DHT22;6807;48.682;9.032;2022-09-13T16:22:16;25.60;1.00
13470;DHT22;6807;48.682;9.032;2022-09-13T16:24:43;25.50;1.00
13470;DHT22;6807;48.682;9.032;2022-09-13T16:27:10;25.50;1.00
13470;DHT22;6807;48.682;9.032;2022-09-13T16:29:39;25.40;1.00
13470;DHT22;6807;48.682;9.032;2022-09-13T16:32:15;25.30;1.00
13470;DHT22;6807;48.682;9.032;2022-09-13T16:34:49;25.20;1.00
13470;DHT22;6807;48.682;9.032;2022-09-13T16:37:17;25.10;1.00
13470;DHT22;6807;48.682;9.032;2022-09-13T16:39:44;24.90;1.00
13470;DHT22;6807;48.682;9.032;2022-09-13T16:42:12;24.80;1.00
13470;DHT22;6807;48.682;9.032;2022-09-13T16:44:45;24.60;1.00
13470;DHT22;6807;48.682;9.032;2022-09-13T16:47:11;24.60;1.00
13470;DHT22;6807;48.682;9.032;2022-09-13T16:49:42;24.50;1.00
13470;DHT22;6807;48.682;9.032;2022-09-13T16:52:09;24.50;1.00
13470;DHT22;6807;48.682;9.032;2022-09-13T16:54:37;24.30;1.00
13470;DHT22;6807;48.682;9.032;2022-09-13T16:57:05;24.30;1.00
13470;DHT22;6807;48.682;9.032;2022-09-13T16:59:35;24.10;1.00
13470;DHT22;6807;48.682;9.032;2022-09-13T17:02:01;23.90;1.00
13470;DHT22;6807;48.682;9.032;2022-09-13T17:04:29;23.90;1.00
13470;DHT22;6807;48.682;9.032;2022-09-13T17:06:57;23.80;1.00
13470;DHT22;6807;48.682;9.032;2022-09-13T17:09:26;23.60;1.00
13470;DHT22;6807;48.682;9.032;2022-09-13T17:11:55;23.30;1.00
13470;DHT22;6807;48.682;9.032;2022-09-13T17:14:22;23.40;1.00
13470;DHT22;6807;48.682;9.032;2022-09-13T17:16:51;23.20;1.00
13470;DHT22;6807;48.682;9.032;2022-09-13T17:19:20;23.20;1.00
13470;DHT22;6807;48.682;9.032;2022-09-13T17:21:47;23.10;1.00
13470;DHT22;6807;48.682;9.032;2022-09-13T17:24:27;22.90;1.00
13470;DHT22;6807;48.682;9.032;2022-09-13T17:26:57;22.80;1.00
13470;DHT22;6807;48.682;9.032;2022-09-13T17:29:26;22.70;1.00
13470;DHT22;6807;48.682;9.032;2022-09-13T17:31:55;22.60;1.00
13470;DHT22;6807;48.682;9.032;2022-09-13T17:34:29;22.50;1.00
13470;DHT22;6807;48.682;9.032;2022-09-13T17:37:01;22.30;1.00
13470;DHT22;6807;48.682;9.032;2022-09-13T17:39:30;22.20;1.00
13470;DHT22;6807;48.682;9.032;2022-09-13T17:42:06;22.00;1.00
13470;DHT22;6807;48.682;9.032;2022-09-13T17:44:46;22.00;1.00
13470;DHT22;6807;48.682;9.032;2022-09-13T17:47:14;22.10;1.00
13470;DHT22;6807;48.682;9.032;2022-09-13T17:50:08;21.70;1.00
13470;DHT22;6807;48.682;9.032;2022-09-13T17:52:53;21.50;1.00
13470;DHT22;6807;48.682;9.032;2022-09-13T17:55:35;21.30;1.00
13470;DHT22;6807;48.682;9.032;2022-09-13T17:58:10;21.10;99.90
13470;DHT22;6807;48.682;9.032;2022-09-13T18:00:37;21.10;1.00
13470;DHT22;6807;48.682;9.032;2022-09-13T18:03:10;21.00;99.90
13470;DHT22;6807;48.682;9.032;2022-09-13T18:08:46;20.80;99.90
13470;DHT22;6807;48.682;9.032;2022-09-13T18:11:28;20.70;99.90
13470;DHT22;6807;48.682;9.032;2022-09-13T18:13:55;20.70;99.90
13470;DHT22;6807;48.682;9.032;2022-09-13T18:16:37;20.60;99.90
13470;DHT22;6807;48.682;9.032;2022-09-13T18:21:40;20.40;99.90
13470;DHT22;6807;48.682;9.032;2022-09-13T18:24:17;20.40;99.90